createdAt,value
2022-11-05T00:00:40.817Z,94793.31
2022-11-05T00:03:28.038Z,94797.38
2022-11-05T00:06:13.554Z,94801.25
2022-11-05T00:08:59.563Z,94790.81
2022-11-05T00:11:41.305Z,94811.78
2022-11-05T00:14:26.425Z,94797.03
2022-11-05T00:16:54.193Z,94814.44
2022-11-05T00:19:23.358Z,94819.94
2022-11-05T00:22:08.624Z,94828.09
2022-11-05T00:24:54.231Z,94834.75
2022-11-05T00:27:22.011Z,94842.38
2022-11-05T00:29:49.775Z,94847.94
2022-11-05T00:32:17.530Z,94843.94
2022-11-05T00:34:46.624Z,94851.75
2022-11-05T00:37:14.389Z,94859.16
2022-11-05T00:39:42.131Z,94852.72
2022-11-05T00:42:27.396Z,94851.56
2022-11-05T00:45:02.402Z,94858.63
2022-11-05T00:47:48.340Z,94863.91
2022-11-05T00:50:18.290Z,94872.84
2022-11-05T00:52:59.400Z,94858.97
2022-11-05T00:55:34.679Z,94867.75
2022-11-05T00:58:04.590Z,94858.63
2022-11-05T01:00:34.011Z,94862.25
2022-11-05T01:03:04.456Z,94858.94
2022-11-05T01:05:34.941Z,94854.53
2022-11-05T01:08:03.150Z,94860.91
2022-11-05T01:10:31.668Z,94860.47
2022-11-05T01:12:59.643Z,94832.38
2022-11-05T01:15:27.555Z,94869.53
2022-11-05T01:17:55.356Z,94868.94
2022-11-05T01:20:23.519Z,94878.31
2022-11-05T01:22:52.751Z,94883.25
2022-11-05T01:25:20.642Z,94881.72
2022-11-05T01:27:48.483Z,94886.41
2022-11-05T01:30:16.413Z,94881.34
2022-11-05T01:32:44.289Z,94880.91
2022-11-05T01:35:15.223Z,94880.09
2022-11-05T01:37:43.350Z,94886.81
2022-11-05T01:40:15.299Z,94887.84
2022-11-05T01:42:43.630Z,94880.88
2022-11-05T01:45:18.133Z,94886.25
2022-11-05T01:47:53.262Z,94888.75
2022-11-05T01:50:31.281Z,94889.31
2022-11-05T01:53:04.982Z,94880.78
2022-11-05T01:55:39.116Z,94890.44
2022-11-05T01:58:10.586Z,94901.78
2022-11-05T02:00:38.885Z,94901.38
2022-11-05T02:03:07.004Z,94894.34
2022-11-05T02:05:35.570Z,94892.72
2022-11-05T02:08:03.806Z,94899.19
2022-11-05T02:10:32.126Z,94898.25
2022-11-05T02:13:01.366Z,94906.28
2022-11-05T02:15:42.785Z,94895.78
2022-11-05T02:18:19.716Z,94891.03
2022-11-05T02:20:58.621Z,94894.34
2022-11-05T02:23:48.237Z,94890.16
2022-11-05T02:26:51.673Z,94884.22
2022-11-05T02:30:04.791Z,94884.16
2022-11-05T02:32:42.011Z,94874.94
2022-11-05T02:35:20.936Z,94877.19
2022-11-05T02:37:54.338Z,94884.78
2022-11-05T02:40:28.635Z,94891.25
2022-11-05T02:43:02.505Z,94895.31
2022-11-05T02:45:41.593Z,94901.69
2022-11-05T02:48:18.129Z,94894.88
2022-11-05T02:50:55.089Z,94893.88
2022-11-05T02:53:35.032Z,94899.47
2022-11-05T02:56:08.117Z,94904.84
2022-11-05T02:58:36.286Z,94907.13
2022-11-05T03:01:07.048Z,94916.13
2022-11-05T03:03:38.872Z,94919.06
2022-11-05T03:06:43.189Z,94905.44
2022-11-05T03:09:29.369Z,94916.09
2022-11-05T03:12:11.183Z,94925.09
2022-11-05T03:14:43.980Z,94930.25
2022-11-05T03:17:28.365Z,94923.09
2022-11-05T03:20:09.171Z,94941.78
2022-11-05T03:22:42.013Z,94941.88
2022-11-05T03:25:15.558Z,94945.41
2022-11-05T03:27:48.435Z,94957.81
2022-11-05T03:30:19.043Z,94964.13
2022-11-05T03:32:52.026Z,94970.59
2022-11-05T03:35:25.275Z,94974.56
2022-11-05T03:37:57.956Z,94975.25
2022-11-05T03:40:27.354Z,94982.06
2022-11-05T03:42:59.226Z,94989.47
2022-11-05T03:45:32.148Z,94987.50
2022-11-05T03:48:02.669Z,94998.09
2022-11-05T03:50:41.309Z,94998.19
2022-11-05T03:53:15.909Z,95007.69
2022-11-05T03:55:53.638Z,95005.31
2022-11-05T03:58:23.432Z,95002.72
2022-11-05T04:00:52.042Z,94990.63
2022-11-05T04:03:21.051Z,95005.28
2022-11-05T04:06:12.318Z,95015.72
2022-11-05T04:08:59.363Z,95012.22
2022-11-05T04:11:41.193Z,95005.53
2022-11-05T04:14:09.086Z,95001.63
2022-11-05T04:16:53.780Z,95005.31
2022-11-05T04:19:42.510Z,95004.63
2022-11-05T04:22:29.007Z,95010.41
2022-11-05T04:24:56.865Z,95004.72
2022-11-05T04:27:24.718Z,95008.44
2022-11-05T04:30:11.707Z,95015.13
2022-11-05T04:32:39.491Z,95013.53
2022-11-05T04:35:07.546Z,95007.22
2022-11-05T04:37:36.684Z,95011.56
2022-11-05T04:40:04.753Z,95024.22
2022-11-05T04:42:32.628Z,95018.47
2022-11-05T04:45:00.513Z,95010.66
2022-11-05T04:47:28.351Z,95015.59
2022-11-05T04:49:56.239Z,95010.28
2022-11-05T04:52:24.068Z,95024.78
2022-11-05T04:54:53.304Z,95024.06
2022-11-05T04:57:21.088Z,95027.31
2022-11-05T04:59:49.604Z,95022.34
2022-11-05T05:02:17.680Z,95027.88
2022-11-05T05:04:46.148Z,95023.63
2022-11-05T05:07:14.077Z,95038.00
2022-11-05T05:09:41.878Z,95043.88
2022-11-05T05:12:11.153Z,95040.03
2022-11-05T05:14:39.014Z,95026.03
2022-11-05T05:17:06.952Z,95034.44
2022-11-05T05:19:55.397Z,95030.53
2022-11-05T05:22:22.245Z,95020.63
2022-11-05T05:24:52.730Z,95022.91
2022-11-05T05:27:22.792Z,95025.63
2022-11-05T05:29:50.709Z,95031.63
2022-11-05T05:32:18.537Z,95035.50
2022-11-05T05:34:46.316Z,95030.22
2022-11-05T05:37:14.153Z,95032.75
2022-11-05T05:39:42.024Z,95030.75
2022-11-05T05:42:09.902Z,95018.34
2022-11-05T05:44:39.424Z,95024.88
2022-11-05T05:47:07.199Z,95026.00
2022-11-05T05:49:35.126Z,95023.81
2022-11-05T05:52:03.028Z,95034.53
2022-11-05T05:54:33.447Z,95034.63
2022-11-05T05:57:02.853Z,95041.13
2022-11-05T05:59:30.894Z,95046.50
2022-11-05T06:02:00.547Z,95042.63
2022-11-05T06:04:28.513Z,95038.56
2022-11-05T06:06:56.392Z,95050.63
2022-11-05T06:09:24.192Z,95043.84
2022-11-05T06:11:52.114Z,95053.19
2022-11-05T06:14:19.876Z,95054.84
2022-11-05T06:16:47.925Z,95065.25
2022-11-05T06:19:17.382Z,95058.72
2022-11-05T06:21:45.306Z,95061.88
2022-11-05T06:24:13.116Z,95071.72
2022-11-05T06:26:43.842Z,95068.72
2022-11-05T06:29:11.720Z,95068.66
2022-11-05T06:31:39.457Z,95072.00
2022-11-05T06:34:07.371Z,95068.72
2022-11-05T06:36:36.509Z,95075.63
2022-11-05T06:39:05.022Z,95080.38
2022-11-05T06:41:45.626Z,95082.47
2022-11-05T06:44:22.391Z,95092.41
2022-11-05T06:46:50.203Z,95100.84
2022-11-05T06:49:17.956Z,95106.75
2022-11-05T06:51:47.119Z,95109.13
2022-11-05T06:54:14.893Z,95114.66
2022-11-05T06:56:42.655Z,95116.41
2022-11-05T06:59:10.609Z,95109.03
2022-11-05T07:01:38.481Z,95117.22
2022-11-05T07:04:06.421Z,95117.25
2022-11-05T07:06:36.987Z,95130.75
2022-11-05T07:09:06.460Z,95132.56
2022-11-05T07:11:34.275Z,95137.44
2022-11-05T07:14:02.392Z,95146.84
2022-11-05T07:16:30.269Z,95144.81
2022-11-05T07:18:58.194Z,95152.66
2022-11-05T07:21:26.086Z,95155.25
2022-11-05T07:23:53.889Z,95165.25
2022-11-05T07:26:23.084Z,95165.75
2022-11-05T07:28:50.961Z,95166.09
2022-11-05T07:31:18.726Z,95160.09
2022-11-05T07:33:46.657Z,95174.38
2022-11-05T07:36:14.850Z,95174.94
2022-11-05T07:38:43.398Z,95175.97
2022-11-05T07:41:11.182Z,95177.00
2022-11-05T07:43:40.356Z,95186.06
2022-11-05T07:46:12.734Z,95189.97
2022-11-05T07:48:42.087Z,95184.50
2022-11-05T07:51:09.888Z,95186.88
2022-11-05T07:53:42.449Z,95188.69
2022-11-05T07:56:12.965Z,95202.06
2022-11-05T07:58:42.179Z,95193.69
2022-11-05T08:01:10.196Z,95196.66
2022-11-05T08:03:38.222Z,95197.19
2022-11-05T08:06:06.444Z,95196.94
2022-11-05T08:08:34.204Z,95201.66
2022-11-05T08:11:05.639Z,95204.22
2022-11-05T08:13:34.023Z,95206.34
2022-11-05T08:16:03.903Z,95206.56
2022-11-05T08:18:32.900Z,95207.09
2022-11-05T08:21:02.193Z,95203.84
2022-11-05T08:23:31.324Z,95204.97
2022-11-05T08:25:59.553Z,95198.06
2022-11-05T08:28:27.641Z,95207.38
2022-11-05T08:30:57.551Z,95205.34
2022-11-05T08:33:27.475Z,95214.03
2022-11-05T08:35:55.290Z,95213.34
2022-11-05T08:38:23.136Z,95219.97
2022-11-05T08:40:56.473Z,95219.13
2022-11-05T08:43:24.271Z,95220.84
2022-11-05T08:45:52.143Z,95218.06
2022-11-05T08:48:20.361Z,95209.81
2022-11-05T08:50:50.223Z,95207.69
2022-11-05T08:53:18.496Z,95218.16
2022-11-05T08:55:47.676Z,95199.59
2022-11-05T08:58:17.271Z,95217.66
2022-11-05T09:00:48.287Z,95215.97
2022-11-05T09:03:16.590Z,95220.38
2022-11-05T09:05:48.661Z,95221.44
2022-11-05T09:08:25.651Z,95225.03
2022-11-05T09:10:53.554Z,95219.25
2022-11-05T09:13:21.777Z,95224.88
2022-11-05T09:15:50.297Z,95231.56
2022-11-05T09:18:19.774Z,95231.03
2022-11-05T09:20:48.891Z,95225.09
2022-11-05T09:23:20.982Z,95223.41
2022-11-05T09:25:48.841Z,95219.44
2022-11-05T09:28:18.459Z,95228.81
2022-11-05T09:30:48.485Z,95224.91
2022-11-05T09:33:17.146Z,95231.16
2022-11-05T09:35:45.504Z,95218.81
2022-11-05T09:38:13.957Z,95242.53
2022-11-05T09:40:50.000Z,95235.56
2022-11-05T09:43:21.411Z,95234.41
2022-11-05T09:45:53.234Z,95238.00
2022-11-05T09:48:24.706Z,95246.41
2022-11-05T09:50:54.151Z,95256.53
2022-11-05T09:53:24.324Z,95254.75
2022-11-05T09:55:56.095Z,95246.63
2022-11-05T09:58:30.335Z,95243.03
2022-11-05T10:00:59.203Z,95242.19
2022-11-05T10:03:31.048Z,95250.00
2022-11-05T10:06:06.882Z,95242.94
2022-11-05T10:08:42.214Z,95258.91
2022-11-05T10:11:17.262Z,95248.78
2022-11-05T10:13:48.799Z,95247.22
2022-11-05T10:16:24.795Z,95243.31
2022-11-05T10:18:56.214Z,95248.38
2022-11-05T10:21:44.223Z,95258.38
2022-11-05T10:24:15.781Z,95257.94
2022-11-05T10:26:48.671Z,95246.31
2022-11-05T10:29:23.751Z,95247.81
2022-11-05T10:31:54.076Z,95255.03
2022-11-05T10:34:25.124Z,95250.72
2022-11-05T10:36:54.319Z,95252.69
2022-11-05T10:39:23.378Z,95260.06
2022-11-05T10:42:18.407Z,95256.72
2022-11-05T10:44:52.319Z,95261.03
2022-11-05T10:47:40.132Z,95263.03
2022-11-05T10:50:12.011Z,95259.06
2022-11-05T10:52:44.116Z,95265.38
2022-11-05T10:55:17.613Z,95280.16
2022-11-05T10:57:49.401Z,95282.69
2022-11-05T11:00:28.309Z,95284.88
2022-11-05T11:02:59.062Z,95289.56
2022-11-05T11:05:30.149Z,95298.28
2022-11-05T11:08:02.530Z,95294.38
2022-11-05T11:10:33.743Z,95302.16
2022-11-05T11:13:03.331Z,95301.13
2022-11-05T11:15:32.703Z,95295.25
2022-11-05T11:18:31.512Z,95293.13
2022-11-05T11:21:13.558Z,95291.97
2022-11-05T11:23:42.975Z,95284.53
2022-11-05T11:26:12.818Z,95291.06
2022-11-05T11:28:47.056Z,95298.38
2022-11-05T11:31:17.349Z,95303.41
2022-11-05T11:33:48.047Z,95295.09
2022-11-05T11:36:18.645Z,95300.28
2022-11-05T11:38:47.070Z,95298.38
2022-11-05T11:41:26.423Z,95303.03
2022-11-05T11:44:00.921Z,95305.25
2022-11-05T11:46:33.778Z,95304.38
2022-11-05T11:49:02.777Z,95294.50
2022-11-05T11:51:37.623Z,95305.97
2022-11-05T11:54:06.587Z,95309.56
2022-11-05T11:56:44.527Z,95312.13
2022-11-05T11:59:40.489Z,95305.78
2022-11-05T12:02:45.950Z,95307.63
2022-11-05T12:05:27.160Z,95300.56
2022-11-05T12:07:58.089Z,95296.16
2022-11-05T12:10:48.138Z,95309.84
2022-11-05T12:13:43.583Z,95315.47
2022-11-05T12:16:21.600Z,95309.63
2022-11-05T12:18:56.978Z,95321.41
2022-11-05T12:21:51.849Z,95303.59
2022-11-05T12:24:58.851Z,95319.81
2022-11-05T12:27:42.668Z,95302.94
2022-11-05T12:30:13.805Z,95312.56
2022-11-05T12:32:56.012Z,95316.72
2022-11-05T12:35:35.352Z,95309.31
2022-11-05T12:38:13.741Z,95304.00
2022-11-05T12:40:53.507Z,95303.66
2022-11-05T12:43:31.195Z,95298.38
2022-11-05T12:46:05.253Z,95324.66
2022-11-05T12:48:53.193Z,95324.44
2022-11-05T12:51:35.517Z,95327.56
2022-11-05T12:54:15.993Z,95334.25
2022-11-05T12:56:47.974Z,95334.69
2022-11-05T12:59:22.641Z,95343.94
2022-11-05T13:01:56.110Z,95346.22
2022-11-05T13:04:35.201Z,95346.44
2022-11-05T13:07:07.545Z,95348.69
2022-11-05T13:09:41.023Z,95343.94
2022-11-05T13:12:12.779Z,95347.47
2022-11-05T13:14:46.633Z,95336.47
2022-11-05T13:17:18.103Z,95333.53
2022-11-05T13:19:53.508Z,95340.69
2022-11-05T13:22:34.316Z,95341.47
2022-11-05T13:25:07.233Z,95328.34
2022-11-05T13:27:52.909Z,95332.84
2022-11-05T13:30:22.957Z,95338.22
2022-11-05T13:32:59.694Z,95343.44
2022-11-05T13:35:32.630Z,95341.38
2022-11-05T13:38:23.781Z,95343.97
2022-11-05T13:41:05.088Z,95357.97
2022-11-05T13:43:53.350Z,95360.66
2022-11-05T13:46:33.292Z,95354.59
2022-11-05T13:49:37.999Z,95352.50
2022-11-05T13:52:24.930Z,95365.88
2022-11-05T13:55:16.995Z,95359.38
2022-11-05T13:58:22.486Z,95354.22
2022-11-05T14:01:04.697Z,95363.41
2022-11-05T14:03:32.942Z,95356.88
2022-11-05T14:06:04.537Z,95355.28
2022-11-05T14:08:40.867Z,95359.06
2022-11-05T14:11:20.735Z,95357.22
2022-11-05T14:13:54.083Z,95357.38
2022-11-05T14:16:23.984Z,95360.28
2022-11-05T14:18:56.286Z,95356.66
2022-11-05T14:21:48.230Z,95354.13
2022-11-05T14:24:44.176Z,95357.69
2022-11-05T14:27:34.312Z,95361.53
2022-11-05T14:30:03.446Z,95356.09
2022-11-05T14:32:44.723Z,95373.28
2022-11-05T14:35:38.468Z,95365.16
2022-11-05T14:38:07.899Z,95365.34
2022-11-05T14:40:42.366Z,95370.28
2022-11-05T14:43:21.503Z,95367.03
2022-11-05T14:45:58.420Z,95373.44
2022-11-05T14:48:37.498Z,95383.06
2022-11-05T14:51:25.403Z,95377.22
2022-11-05T14:54:02.161Z,95375.03
2022-11-05T14:56:43.356Z,95376.81
2022-11-05T14:59:52.737Z,95383.91
2022-11-05T15:02:24.013Z,95384.38
2022-11-05T15:04:53.193Z,95383.41
2022-11-05T15:07:34.586Z,95383.84
2022-11-05T15:10:10.666Z,95382.25
2022-11-05T15:12:45.644Z,95376.59
2022-11-05T15:15:23.838Z,95391.34
2022-11-05T15:18:01.644Z,95388.66
2022-11-05T15:20:40.223Z,95389.56
2022-11-05T15:23:12.978Z,95395.03
2022-11-05T15:25:52.977Z,95392.09
2022-11-05T15:28:30.246Z,95392.50
2022-11-05T15:31:00.447Z,95401.06
2022-11-05T15:33:28.834Z,95407.38
2022-11-05T15:36:12.303Z,95407.22
2022-11-05T15:38:52.093Z,95406.88
2022-11-05T15:41:34.433Z,95405.13
2022-11-05T15:44:03.854Z,95403.91
2022-11-05T15:46:32.079Z,95405.22
2022-11-05T15:49:03.368Z,95408.09
2022-11-05T15:51:31.567Z,95407.31
2022-11-05T15:54:28.621Z,95408.47
2022-11-05T15:56:52.453Z,95408.47
2022-11-05T15:59:23.247Z,95411.19
2022-11-05T16:01:56.432Z,95407.06
2022-11-05T16:04:26.481Z,95405.34
2022-11-05T16:06:58.372Z,95420.00
2022-11-05T16:09:28.115Z,95416.53
2022-11-05T16:12:24.146Z,95417.28
2022-11-05T16:15:01.540Z,95421.03
2022-11-05T16:17:32.990Z,95420.50
2022-11-05T16:20:00.904Z,95426.72
2022-11-05T16:22:47.703Z,95433.28
2022-11-05T16:25:30.047Z,95426.59
2022-11-05T16:27:58.437Z,95436.66
2022-11-05T16:30:28.210Z,95439.63
2022-11-05T16:33:03.469Z,95444.22
2022-11-05T16:35:31.428Z,95447.31
2022-11-05T16:38:02.669Z,95450.69
2022-11-05T16:40:33.344Z,95458.25
2022-11-05T16:43:16.510Z,95473.72
2022-11-05T16:45:45.720Z,95470.25
2022-11-05T16:48:14.916Z,95473.13
2022-11-05T16:50:43.423Z,95471.88
2022-11-05T16:53:12.078Z,95465.22
2022-11-05T16:55:42.167Z,95483.09
2022-11-05T16:58:19.594Z,95484.06
2022-11-05T17:00:50.694Z,95472.28
2022-11-05T17:03:19.099Z,95486.63
2022-11-05T17:05:47.476Z,95486.91
2022-11-05T17:08:15.533Z,95478.19
2022-11-05T17:10:43.728Z,95479.97
2022-11-05T17:13:15.355Z,95486.81
2022-11-05T17:15:45.041Z,95503.16
2022-11-05T17:18:18.600Z,95499.44
2022-11-05T17:20:49.205Z,95507.59
2022-11-05T17:23:18.664Z,95492.31
2022-11-05T17:25:48.341Z,95507.13
2022-11-05T17:28:16.713Z,95504.06
2022-11-05T17:30:51.665Z,95511.31
2022-11-05T17:33:23.001Z,95518.16
2022-11-05T17:35:51.608Z,95500.31
2022-11-05T17:38:20.352Z,95512.75
2022-11-05T17:40:49.082Z,95508.78
2022-11-05T17:43:16.963Z,95523.59
2022-11-05T17:45:46.941Z,95519.19
2022-11-05T17:48:15.622Z,95519.50
2022-11-05T17:50:46.469Z,95524.13
2022-11-05T17:53:15.535Z,95524.75
2022-11-05T17:55:44.877Z,95525.81
2022-11-05T17:58:13.066Z,95529.38
2022-11-05T18:00:42.795Z,95525.56
2022-11-05T18:03:11.626Z,95525.56
2022-11-05T18:05:40.418Z,95527.00
2022-11-05T18:08:10.186Z,95538.78
2022-11-05T18:10:38.713Z,95542.31
2022-11-05T18:13:07.538Z,95534.66
2022-11-05T18:15:38.044Z,95544.19
2022-11-05T18:18:05.958Z,95547.66
2022-11-05T18:20:34.146Z,95537.47
2022-11-05T18:23:02.101Z,95541.34
2022-11-05T18:25:31.361Z,95544.69
2022-11-05T18:27:59.308Z,95547.19
2022-11-05T18:30:29.548Z,95544.00
2022-11-05T18:32:57.469Z,95553.72
2022-11-05T18:35:25.306Z,95547.50
2022-11-05T18:37:53.219Z,95549.75
2022-11-05T18:40:21.241Z,95545.91
2022-11-05T18:42:50.530Z,95545.91
2022-11-05T18:45:18.366Z,95543.38
2022-11-05T18:47:46.209Z,95542.78
2022-11-05T18:50:14.111Z,95543.41
2022-11-05T18:52:41.969Z,95545.16
2022-11-05T18:55:10.798Z,95547.22
2022-11-05T18:57:39.152Z,95553.13
2022-11-05T19:00:09.995Z,95541.50
2022-11-05T19:02:40.733Z,95553.72
2022-11-05T19:07:57.361Z,95541.78
2022-11-05T19:10:25.184Z,95548.19
2022-11-05T19:12:53.135Z,95556.00
2022-11-05T19:15:22.712Z,95556.63
2022-11-05T19:17:50.544Z,95549.16
2022-11-05T19:20:18.350Z,95547.06
2022-11-05T19:22:46.147Z,95553.31
2022-11-05T19:25:14.091Z,95557.78
2022-11-05T19:27:43.680Z,95549.81
2022-11-05T19:30:12.684Z,95544.41
2022-11-05T19:32:42.193Z,95554.91
2022-11-05T19:35:10.393Z,95553.78
2022-11-05T19:37:38.249Z,95553.81
2022-11-05T19:40:07.384Z,95555.09
2022-11-05T19:42:35.231Z,95567.81
2022-11-05T19:45:22.867Z,95565.59
2022-11-05T19:47:52.198Z,95561.91
2022-11-05T19:50:20.095Z,95566.38
2022-11-05T19:52:47.941Z,95562.09
2022-11-05T19:55:17.489Z,95562.56
2022-11-05T19:57:45.344Z,95572.13
2022-11-05T20:00:14.615Z,95570.53
2022-11-05T20:02:45.228Z,95569.56
2022-11-05T20:05:15.032Z,95574.50
2022-11-05T20:07:44.223Z,95561.28
2022-11-05T20:10:14.811Z,95578.16
2022-11-05T20:12:42.701Z,95576.72
2022-11-05T20:15:11.145Z,95566.84
2022-11-05T20:17:39.205Z,95566.69
2022-11-05T20:20:08.561Z,95563.81
2022-11-05T20:22:38.380Z,95567.31
2022-11-05T20:25:07.245Z,95560.97
2022-11-05T20:27:35.109Z,95570.22
2022-11-05T20:30:02.978Z,95558.91
2022-11-05T20:32:30.943Z,95556.66
2022-11-05T20:34:58.830Z,95565.91
2022-11-05T20:37:26.705Z,95566.38
2022-11-05T20:39:56.091Z,95568.94
2022-11-05T20:42:23.980Z,95561.88
2022-11-05T20:44:51.787Z,95565.38
2022-11-05T20:47:19.702Z,95566.81
2022-11-05T20:49:47.500Z,95567.13
2022-11-05T20:52:17.133Z,95569.97
2022-11-05T20:54:45.223Z,95580.63
2022-11-05T20:57:14.481Z,95582.38
2022-11-05T20:59:42.288Z,95583.41
2022-11-05T21:02:10.580Z,95585.44
2022-11-05T21:04:57.897Z,95586.28
2022-11-05T21:07:25.712Z,95583.88
2022-11-05T21:09:53.519Z,95578.63
2022-11-05T21:12:23.085Z,95584.69
2022-11-05T21:14:51.040Z,95582.13
2022-11-05T21:17:19.801Z,95586.72
2022-11-05T21:19:47.642Z,95587.16
2022-11-05T21:22:16.187Z,95578.06
2022-11-05T21:24:44.247Z,95587.59
2022-11-05T21:27:12.014Z,95581.88
2022-11-05T21:29:41.231Z,95574.38
2022-11-05T21:32:09.105Z,95584.38
2022-11-05T21:34:36.885Z,95573.22
2022-11-05T21:37:05.587Z,95581.78
2022-11-05T21:39:34.807Z,95578.75
2022-11-05T21:42:02.956Z,95582.28
2022-11-05T21:44:30.819Z,95579.88
2022-11-05T21:47:00.249Z,95580.97
2022-11-05T21:49:28.148Z,95576.84
2022-11-05T21:52:13.346Z,95571.91
2022-11-05T21:54:58.783Z,95580.28
2022-11-05T21:57:44.141Z,95577.69
2022-11-05T22:00:13.954Z,95575.53
2022-11-05T22:02:43.362Z,95576.63
2022-11-05T22:05:11.313Z,95566.16
2022-11-05T22:07:40.271Z,95568.13
2022-11-05T22:10:15.862Z,95568.31
2022-11-05T22:12:46.194Z,95572.31
2022-11-05T22:15:14.443Z,95569.91
2022-11-05T22:17:46.979Z,95576.13
2022-11-05T22:20:16.213Z,95575.16
2022-11-05T22:22:44.291Z,95567.53
2022-11-05T22:25:12.867Z,95580.56
2022-11-05T22:27:40.852Z,95585.97
2022-11-05T22:30:09.583Z,95584.97
2022-11-05T22:32:38.619Z,95587.66
2022-11-05T22:35:08.873Z,95583.72
2022-11-05T22:37:36.743Z,95591.19
2022-11-05T22:40:05.117Z,95585.41
2022-11-05T22:42:32.935Z,95586.00
2022-11-05T22:45:00.921Z,95583.66
2022-11-05T22:47:28.790Z,95593.00
2022-11-05T22:49:56.883Z,95588.25
2022-11-05T22:52:26.087Z,95584.63
2022-11-05T22:54:53.953Z,95586.06
2022-11-05T22:57:21.750Z,95585.91
2022-11-05T22:59:49.771Z,95586.84
2022-11-05T23:02:17.696Z,95580.03
2022-11-05T23:04:45.543Z,95568.06
2022-11-05T23:07:30.888Z,95576.16
2022-11-05T23:10:17.722Z,95576.00
2022-11-05T23:12:45.831Z,95574.56
2022-11-05T23:15:34.337Z,95575.66
2022-11-05T23:18:19.612Z,95565.38
2022-11-05T23:21:05.074Z,95567.59
2022-11-05T23:23:50.552Z,95572.81
2022-11-05T23:26:37.368Z,95567.31
2022-11-05T23:29:05.354Z,95561.41
2022-11-05T23:31:51.013Z,95566.56
2022-11-05T23:34:18.795Z,95566.31
2022-11-05T23:37:04.029Z,95562.88
2022-11-05T23:39:31.808Z,95565.56
2022-11-05T23:42:33.152Z,95565.78
2022-11-05T23:45:18.644Z,95551.72
2022-11-05T23:48:04.038Z,95570.84
2022-11-05T23:50:37.154Z,95606.69
2022-11-05T23:53:07.856Z,95617.81
2022-11-05T23:55:35.595Z,95602.00
2022-11-05T23:58:05.057Z,95603.19
